ID Time Temp Humidity Light PM2.5 PM10 Voltage Extra Firmware Position Fcnt TTN version Gateways Distance RSSI LSNR Radiosettings
2026-05-07 18:42:00 14.875°C 68.3125% 1 μg/m³ 1 μg/m³ 4.16V / 2.99V 14,14,14,14,108,108,108,108,360,3527 v7 52.0773 / 5.09616 7027 ttn.v3 0.027km -93 11.8 867.3MHz, SF9BW125, 4/5CR
2026-05-07 18:26:59 15.0625°C 67.625% 3 μg/m³ 3 μg/m³ 4.16V / 2.99V 30,32,32,32,242,243,243,243,450,3668 v7 52.0773 / 5.09616 7026 ttn.v3 0.027km -94 12.5 868.1MHz, SF9BW125, 4/5CR
2026-05-07 18:11:59 15.3125°C 67.3125% 2 μg/m³ 3 μg/m³ 4.18V / 2.99V 18,27,33,36,133,141,142,142,525,3923 v7 52.0773 / 5.09616 7025 ttn.v3 0.027km -96 12.2 867.1MHz, SF9BW125, 4/5CR
2026-05-07 17:41:59 16.125°C 62.5625% 3 μg/m³ 4 μg/m³ 4.18V / 2.99V 19,32,42,47,137,149,151,151,936,4689 v7 52.0773 / 5.09616 7023 ttn.v3 0.027km -92 12 867.3MHz, SF9BW125, 4/5CR
1.756km -125 -8.75 867.3MHz, SF9BW125, 4/5CR
2026-05-07 17:27:01 16.3125°C 61.625% 2 μg/m³ 2 μg/m³ 4.18V / 2.99V 19,22,24,25,149,152,152,152,579,5472 v7 52.0773 / 5.09616 7022 ttn.v3 0.027km -94 10.5 868.5MHz, SF9BW125, 4/5CR
2026-05-07 17:11:59 16.125°C 62.25% 5 μg/m³ 6 μg/m³ 4.18V / 2.99V 42,56,65,69,325,336,338,338,625,5524 v7 52.0773 / 5.09616 7021 ttn.v3 0.027km -97 12.2 867.3MHz, SF9BW125, 4/5CR
2026-05-07 16:56:59 16.25°C 63.25% 3 μg/m³ 4 μg/m³ 4.18V / 2.99V 34,38,40,41,266,269,270,270,579,5164 v7 52.0773 / 5.09616 7020 ttn.v3 0.027km -92 10 868.5MHz, SF9BW125, 4/5CR
2026-05-07 16:41:59 16.1875°C 61.125% 2 μg/m³ 2 μg/m³ 4.18V / 2.99V 18,23,25,26,142,146,146,146,631,4609 v7 52.0773 / 5.09616 7019 ttn.v3 0.027km -97 10.5 867.5MHz, SF9BW125, 4/5CR
2026-05-07 16:26:59 15.875°C 62% 1 μg/m³ 1 μg/m³ 4.16V / 2.99V 13,16,18,19,97,100,101,101,470,4557 v7 52.0773 / 5.09616 7018 ttn.v3 0.027km -96 11 868.1MHz, SF9BW125, 4/5CR
1.756km -124 -11.75 868.1MHz, SF9BW125, 4/5CR
2026-05-07 16:11:59 15.9375°C 61.0625% 4.12V / 2.99V 8,8,8,8,64,64,64,64,442,5859 v7 52.0773 / 5.09616 7017 ttn.v3 0.027km -93 12.8 867.7MHz, SF9BW125, 4/5CR
2026-05-07 15:56:59 16.3125°C 59.5% 4 μg/m³ 4 μg/m³ 4.14V / 2.99V 37,42,45,46,293,297,298,298,480,5885 v7 52.0773 / 5.09616 7016 ttn.v3 0.027km -90 14 868.1MHz, SF9BW125, 4/5CR
1.756km -128 -14.5 868.1MHz, SF9BW125, 4/5CR
2026-05-07 15:42:07 16.125°C 58.8125% 1 μg/m³ 1 μg/m³ 4.14V / 2.99V 18,19,19,19,145,145,145,145,397,5859 v7 52.0773 / 5.09616 7015 ttn.v3 0.027km -97 12.5 867.1MHz, SF9BW125, 4/5CR
2026-05-07 15:27:13 15.8125°C 62.5625% 2 μg/m³ 2 μg/m³ 4.14V / 2.99V 19,21,21,21,149,150,150,150,482,5903 v7 52.0773 / 5.09616 7014 ttn.v3 0.027km -94 9.8 868.3MHz, SF9BW125, 4/5CR
2026-05-07 15:12:13 15.625°C 69% 2 μg/m³ 2 μg/m³ 4.14V / 2.99V 21,22,22,22,168,168,168,168,360,5780 v7 52.0773 / 5.09616 7013 ttn.v3 0.027km -96 11.8 868.1MHz, SF9BW125, 4/5CR
2026-05-07 14:57:13 15.5°C 65.4375% 1 μg/m³ 1 μg/m³ 4.14V / 2.99V 13,14,14,14,106,107,107,107,473,5903 v7 52.0773 / 5.09616 7012 ttn.v3 0.027km -93 9.5 868.5MHz, SF9BW125, 4/5CR
2026-05-07 14:42:11 15.5625°C 65.3125% 1 μg/m³ 1 μg/m³ 4.14V / 2.99V 11,16,19,20,87,91,91,91,724,5894 v7 52.0773 / 5.09616 7011 ttn.v3 0.027km -95 11.8 868.1MHz, SF9BW125, 4/5CR
2026-05-07 14:27:12 15.5625°C 63.875% 2 μg/m³ 2 μg/m³ 4.14V / 2.99V 26,27,27,27,205,205,205,205,415,5806 v7 52.0773 / 5.09616 7010 ttn.v3 0.027km -92 10.2 868.3MHz, SF9BW125, 4/5CR
2026-05-07 14:12:13 15.5625°C 64.375% 1 μg/m³ 1 μg/m³ 4.16V / 2.99V 18,19,19,19,143,143,143,143,397,5868 v7 52.0773 / 5.09616 7009 ttn.v3 0.027km -95 11.5 868.1MHz, SF9BW125, 4/5CR
2026-05-07 13:56:58 16.25°C 61.8125% 1 μg/m³ 1 μg/m³ 4.16V / 2.99V 14,15,15,15,115,115,115,115,374,5850 v7 52.0773 / 5.09616 7008 ttn.v3 0.027km -91 11 868.3MHz, SF9BW125, 4/5CR
2026-05-07 13:42:41 17.25°C 61% 1 μg/m³ 2 μg/m³ 4.16V / 2.99V 18,20,20,20,145,146,146,146,509,5929 v7 52.0773 / 5.09616 7007 ttn.v3 0.027km -100 8.2 867.1MHz, SF12BW125, 4/5CR
4.362km -107 -17 867.1MHz, SF12BW125, 4/5CR
2026-05-07 13:26:58 18.3125°C 59.3125% 3 μg/m³ 3 μg/m³ 4.16V / 2.99V 28,31,32,33,219,221,222,222,526,6334 v7 52.0771 / 5.09616 7006 ttn.v3 0.005km -97 10.2 867.5MHz, SF9BW125, 4/5CR
2026-05-07 13:11:57 18.3125°C 57.25% 1 μg/m³ 1 μg/m³ 4.18V / 2.99V 8,12,14,15,64,67,67,67,497,6334 v7 52.0771 / 5.09616 7005 ttn.v3 0.005km -94 8.5 868.5MHz, SF9BW125, 4/5CR
2026-05-07 12:56:57 18.5°C 62.4375% 2 μg/m³ 2 μg/m³ 4.18V / 2.99V 15,21,25,26,118,123,124,124,748,6299 v7 52.0771 / 5.09616 7004 ttn.v3 0.005km -91 12.8 867.7MHz, SF9BW125, 4/5CR
2026-05-07 12:41:57 16.875°C 66.5625% 1 μg/m³ 1 μg/m³ 4.18V / 2.99V 14,14,14,14,108,109,109,109,440,6351 v7 52.0771 / 5.09616 7003 ttn.v3 0.005km -101 8.2 868.3MHz, SF9BW125, 4/5CR
2026-05-07 12:26:57 14.875°C 75.9375% 4.18V / 2.99V 9,10,10,10,74,74,74,74,419,6070 v7 52.0771 / 5.09616 7002 ttn.v3 0.005km -103 11.8 867.1MHz, SF9BW125, 4/5CR
2026-05-07 12:11:57 14.625°C 82.25% 1 μg/m³ 2 μg/m³ 4.18V / 2.99V 14,18,20,21,108,111,112,112,587,6334 v7 52.0771 / 5.09616 7001 ttn.v3 0.005km -97 8 868.3MHz, SF9BW125, 4/5CR
2026-05-07 11:56:57 16.5°C 72.8125% 2 μg/m³ 3 μg/m³ 4.18V / 2.99V 19,29,36,40,140,149,150,151,698,5718 v7 52.0771 / 5.09616 7000 ttn.v3 0.005km -94 11 867.5MHz, SF9BW125, 4/5CR
2026-05-07 11:41:57 14.875°C 82.5% 4.2V / 2.99V 8,8,8,8,62,63,63,63,401,6184 v7 52.0771 / 5.09616 6999 ttn.v3 0.005km -91 13.2 868.3MHz, SF9BW125, 4/5CR
2026-05-07 11:26:57 14.8125°C 79.5% 2 μg/m³ 3 μg/m³ 4.18V / 2.99V 13,21,27,30,100,107,108,108,566,5964 v7 52.0771 / 5.09616 6998 ttn.v3 0.005km -101 10 867.5MHz, SF9BW125, 4/5CR
2026-05-07 11:11:57 14.125°C 96.4375% 2 μg/m³ 3 μg/m³ 4.18V / 2.99V 13,25,35,40,93,103,105,105,1069,6114 v7 52.0771 / 5.09616 6997 ttn.v3 0.005km -94 12.2 868.3MHz, SF9BW125, 4/5CR
2026-05-07 10:56:57 13.75°C 94.5% 1 μg/m³ 1 μg/m³ 4.18V / 2.99V 12,16,19,20,91,94,95,95,723,5436 v7 52.0771 / 5.09616 6996 ttn.v3 0.005km -103 12 867.3MHz, SF9BW125, 4/5CR
2026-05-07 10:41:56 13.4375°C 97.4375% 1 μg/m³ 3 μg/m³ 4.18V / 2.99V 11,20,27,30,76,84,86,86,967,5278 v7 52.0771 / 5.09616 6995 ttn.v3 0.005km -94 7.8 868.5MHz, SF9BW125, 4/5CR
2026-05-07 10:26:56 13.5°C 90.375% 1 μg/m³ 2 μg/m³ 4.18V / 2.99V 8,15,21,24,57,63,64,64,823,5586 v7 52.0771 / 5.09616 6994 ttn.v3 0.005km -102 11.2 867.9MHz, SF9BW125, 4/5CR
4.372km -111 -9.5 867.9MHz, SF9BW125, 4/5CR
1.741km -127 -11.5 867.9MHz, SF9BW125, 4/5CR
2026-05-07 10:11:57 13.4375°C 88.9375% 1 μg/m³ 1 μg/m³ 4.18V / 2.99V 7,11,14,15,54,57,57,58,644,5296 v7 52.0771 / 5.09616 6993 ttn.v3 0.005km -95 6 868.5MHz, SF9BW125, 4/5CR
2026-05-07 09:56:56 13.8125°C 94% 1 μg/m³ 1 μg/m³ 4.18V / 2.99V 8,11,13,14,60,62,63,63,547,6281 v7 52.0771 / 5.09616 6992 ttn.v3 0.005km -98 12.2 867.7MHz, SF9BW125, 4/5CR
2026-05-07 09:42:01 14.0625°C 90.8125% 4 μg/m³ 7 μg/m³ 4.18V / 2.99V 24,45,62,70,167,186,189,190,886,5111 v7 52.0771 / 5.09616 6991 ttn.v3 0.005km -95 8 868.5MHz, SF9BW125, 4/5CR
2026-05-07 09:27:00 13.6875°C 93.4375% 3 μg/m³ 3 μg/m³ 4.18V / 2.99V 28,33,36,38,216,220,221,221,553,6114 v7 52.0771 / 5.09616 6990 ttn.v3 0.005km -96 12.5 868.1MHz, SF9BW125, 4/5CR
2026-05-07 09:11:59 11.25°C 112.812% 4 μg/m³ 6 μg/m³ 4.16V / 2.99V 23,41,56,63,163,179,182,182,862,5322 v7 52.0771 / 5.09616 6989 ttn.v3 0.005km -96 9.2 868.5MHz, SF9BW125, 4/5CR
2026-05-07 08:56:59 10°C 1.4375% 7 μg/m³ 13 μg/m³ 4.06V / 2.99V 32,79,117,135,210,251,259,260,916,4346 v7 52.0771 / 5.09616 6988 ttn.v3 0.005km -97 10.2 868.3MHz, SF9BW125, 4/5CR
2026-05-07 08:41:59 9.75°C 7.4375% 3 μg/m³ 4 μg/m³ 4.06V / 2.99V 24,36,46,50,181,191,193,194,835,4328 v7 52.0771 / 5.09616 6987 ttn.v3 0.005km -98 7.2 868.3MHz, SF9BW125, 4/5CR
2026-05-07 08:26:58 9.5°C 9.75% 3 μg/m³ 4 μg/m³ 4.06V / 2.99V 27,34,39,42,210,216,217,217,666,4310 v7 52.0771 / 5.09616 6986 ttn.v3 0.005km -97 12.5 868.1MHz, SF9BW125, 4/5CR
2026-05-07 08:11:58 9.25°C 13.375% 3 μg/m³ 5 μg/m³ 4.06V / 2.99V 24,39,51,57,177,190,192,193,822,4302 v7 52.0771 / 5.09616 6985 ttn.v3 0.005km -100 12.5 868.1MHz, SF9BW125, 4/5CR
2026-05-07 07:56:58 8.9375°C 16.875% 3 μg/m³ 6 μg/m³ 4.04V / 2.99V 14,37,56,65,85,106,109,110,1285,4293 v7 52.0771 / 5.09616 6984 ttn.v3 0.005km -99 11.5 868.1MHz, SF9BW125, 4/5CR
2026-05-07 07:41:58 8.5°C 20.9375% 1 μg/m³ 1 μg/m³ 4.04V / 2.99V 8,12,15,16,57,61,61,61,768,4275 v7 52.0771 / 5.09616 6983 ttn.v3 0.005km -97 7.8 868.3MHz, SF9BW125, 4/5CR
2026-05-07 07:26:59 8.1875°C 21.75% 2 μg/m³ 3 μg/m³ 4.04V / 3V 22,29,34,36,173,178,179,179,541,4258 v7 52.0771 / 5.09616 6982 ttn.v3 0.005km -98 12 868.1MHz, SF9BW125, 4/5CR
2026-05-07 07:11:59 8.25°C 21.3125% 1 μg/m³ 1 μg/m³ 4.04V / 2.99V 13,13,13,13,100,100,100,100,449,4205 v7 52.0771 / 5.09616 6981 ttn.v3 0.005km -98 11 868.1MHz, SF9BW125, 4/5CR
2026-05-07 06:56:57 8.125°C 21.6875% 7 μg/m³ 11 μg/m³ 4.04V / 3V 43,78,105,118,307,337,342,343,704,4240 v7 52.0771 / 5.09616 6980 ttn.v3 0.005km -99 11.8 868.1MHz, SF9BW125, 4/5CR
1.741km -126 -12.5 868.1MHz, SF9BW125, 4/5CR
2026-05-07 06:41:58 7.8125°C 22.375% 2 μg/m³ 2 μg/m³ 4.04V / 3V 28,30,30,30,224,225,225,225,437,4170 v7 52.0771 / 5.09616 6979 ttn.v3 0.005km -100 11.8 868.1MHz, SF9BW125, 4/5CR
2026-05-07 06:26:58 7.5625°C 22.8125% 3 μg/m³ 4 μg/m³ 4.06V / 2.99V 29,38,44,47,222,230,231,231,549,3571 v7 52.0771 / 5.09616 6978 ttn.v3 0.005km -97 11.5 868.3MHz, SF9BW125, 4/5CR
2026-05-07 06:11:57 7.5°C 22.75% 3 μg/m³ 3 μg/m³ 4.06V / 3V 34,36,36,36,269,270,270,270,400,2947 v7 52.0771 / 5.09616 6977 ttn.v3 0.005km -100 12 868.1MHz, SF9BW125, 4/5CR
1.741km -127 -11.25 868.1MHz, SF9BW125, 4/5CR
2026-05-07 05:56:58 7.375°C 22.8125% 3 μg/m³ 4 μg/m³ 4.06V / 3V 19,31,40,44,142,153,154,155,889,1997 v7 52.0771 / 5.09616 6976 ttn.v3 0.005km -97 10.8 868.3MHz, SF9BW125, 4/5CR
2026-05-07 05:41:57 7.375°C 23.1875% 4 μg/m³ 5 μg/m³ 4.06V / 2.99V 37,44,49,51,286,292,293,293,663,932 v7 52.0771 / 5.09616 6975 ttn.v3 0.005km -94 7.5 868.5MHz, SF9BW125, 4/5CR
2026-05-07 05:26:57 7.25°C 23.1875% 3 μg/m³ 4 μg/m³ 4.06V / 3V 24,33,40,43,185,193,194,194,575,167 v7 52.0771 / 5.09616 6974 ttn.v3 0.005km -98 12 868.1MHz, SF9BW125, 4/5CR
1.741km -126 -12.25 868.1MHz, SF9BW125, 4/5CR
2026-05-07 05:11:56 7.3125°C 22.8125% 2 μg/m³ 3 μg/m³ 4.06V / 2.99V 20,29,35,38,155,162,163,164,745,61 v7 52.0771 / 5.09616 6973 ttn.v3 0.005km -97 11.5 868.3MHz, SF9BW125, 4/5CR
2026-05-07 04:56:57 7.4375°C 22.25% 2 μg/m³ 3 μg/m³ 4.06V / 2.99V 24,28,30,31,184,188,188,188,500,52 v7 52.0771 / 5.09616 6972 ttn.v3 1.741km -126 -12.25 868.1MHz, SF9BW125, 4/5CR
2026-05-07 04:41:58 7.5625°C 21.3125% 2 μg/m³ 3 μg/m³ 4.08V / 2.99V 18,28,36,39,131,140,141,141,929,52 v7 52.0771 / 5.09616 6971 ttn.v3 0.005km -92 8.2 868.5MHz, SF9BW125, 4/5CR
2026-05-07 04:26:58 7.6875°C 20.1875% 3 μg/m³ 3 μg/m³ 4.08V / 3V 23,31,35,38,180,186,187,187,616,52 v7 52.0771 / 5.09616 6970 ttn.v3 0.005km -95 12.2 868.1MHz, SF9BW125, 4/5CR
2026-05-07 04:11:56 7.875°C 18.625% 2 μg/m³ 4 μg/m³ 4.08V / 3V 15,29,40,46,102,115,117,117,756,52 v7 52.0771 / 5.09616 6969 ttn.v3 0.005km -96 7.8 868.5MHz, SF9BW125, 4/5CR
2026-05-07 03:56:57 8.0625°C 16.25% 3 μg/m³ 5 μg/m³ 4.08V / 2.99V 15,34,50,57,99,116,119,119,1006,52 v7 52.0771 / 5.09616 6968 ttn.v3 0.005km -96 10 868.5MHz, SF9BW125, 4/5CR
2026-05-07 03:41:56 8.3125°C 13.8125% 4 μg/m³ 7 μg/m³ 4.08V / 2.99V 26,47,64,71,187,205,208,209,988,52 v7 52.0771 / 5.09616 6967 ttn.v3 0.005km -97 11.8 868.1MHz, SF9BW125, 4/5CR
2026-05-07 03:26:55 8.4375°C 12.5% 3 μg/m³ 4 μg/m³ 4.08V / 3V 34,39,41,42,268,272,272,272,532,52 v7 52.0771 / 5.09616 6966 ttn.v3 0.005km -95 12.2 868.1MHz, SF9BW125, 4/5CR
2026-05-07 03:11:57 8.625°C 9.75% 1 μg/m³ 2 μg/m³ 4.08V / 2.99V 8,15,20,23,56,63,64,64,770,61 v7 52.0771 / 5.09616 6965 ttn.v3 0.005km -95 12 868.1MHz, SF9BW125, 4/5CR
2026-05-07 02:56:57 8.75°C 8.375% 5 μg/m³ 8 μg/m³ 4.08V / 2.99V 37,59,75,83,277,295,299,299,696,61 v7 52.0771 / 5.09616 6964 ttn.v3 0.005km -94 12 868.3MHz, SF9BW125, 4/5CR
2026-05-07 02:41:54 8.9375°C 8.125% 2 μg/m³ 2 μg/m³ 4.08V / 2.99V 20,23,24,25,159,161,162,162,548,61 v7 52.0771 / 5.09616 6963 ttn.v3 0.005km -94 10.2 868.3MHz, SF9BW125, 4/5CR
2026-05-07 02:26:56 9°C 6.8125% 1 μg/m³ 1 μg/m³ 4.08V / 2.99V 10,13,14,15,76,78,78,79,538,61 v7 52.0771 / 5.09616 6962 ttn.v3 0.005km -91 12.8 868.1MHz, SF9BW125, 4/5CR
2026-05-07 02:11:56 9.1875°C 4.5% 2 μg/m³ 3 μg/m³ 4.1V / 2.99V 24,30,33,35,189,194,194,194,582,61 v7 52.0771 / 5.09616 6961 ttn.v3 0.005km -94 10.5 868.3MHz, SF9BW125, 4/5CR
2026-05-07 01:56:53 9.4375°C 0.8125% 3 μg/m³ 6 μg/m³ 4.1V / 2.99V 16,40,59,68,104,125,129,129,1032,61 v7 52.0771 / 5.09616 6960 ttn.v3 0.005km -93 9.5 868.5MHz, SF9BW125, 4/5CR
2026-05-07 01:41:56 9.75°C -5.125% 1 μg/m³ 1 μg/m³ 4.1V / 3V 8,11,13,14,63,65,66,66,655,61 v7 52.0771 / 5.09616 6959 ttn.v3 0.005km -92 9.8 868.5MHz, SF9BW125, 4/5CR
2026-05-07 01:26:52 10.125°C -2.25% 4 μg/m³ 5 μg/m³ 4.1V / 2.99V 41,47,49,50,324,328,328,328,478,61 v7 52.0771 / 5.09616 6958 ttn.v3 0.005km -91 11 868.5MHz, SF9BW125, 4/5CR
2026-05-07 01:11:52 10.375°C 117.375% 1 μg/m³ 1 μg/m³ 4.1V / 2.99V 14,15,15,15,111,111,111,111,375,70 v7 52.0771 / 5.09616 6957 ttn.v3 0.005km -93 9.8 868.5MHz, SF9BW125, 4/5CR
2026-05-07 00:56:54 10.625°C 115.938% 1 μg/m³ 1 μg/m³ 4.1V / 2.99V 13,14,14,15,99,100,100,101,528,70 v7 52.0771 / 5.09616 6956 ttn.v3 0.005km -93 11.5 868.3MHz, SF9BW125, 4/5CR
2026-05-07 00:41:53 10.8125°C 112.125% 2 μg/m³ 2 μg/m³ 4.12V / 2.99V 23,27,28,29,181,184,184,184,469,70 v7 52.0771 / 5.09616 6955 ttn.v3 0.005km -96 11.8 868.1MHz, SF9BW125, 4/5CR
1.741km -124 -11.75 868.1MHz, SF9BW125, 4/5CR
2026-05-07 00:26:54 10.9375°C 110.875% 5 μg/m³ 6 μg/m³ 4.12V / 2.99V 41,55,65,70,315,327,329,330,537,70 v7 52.0771 / 5.09616 6954 ttn.v3 0.005km -94 9 868.5MHz, SF9BW125, 4/5CR
2026-05-07 00:11:53 11.0625°C 107.062% 6 μg/m³ 6 μg/m³ 4.12V / 2.99V 53,61,66,68,417,424,424,425,597,70 v7 52.0771 / 5.09616 6953 ttn.v3 0.005km -94 11.2 868.5MHz, SF9BW125, 4/5CR
2026-05-06 23:56:52 11.25°C 102.062% 4 μg/m³ 4 μg/m³ 4.12V / 3V 39,44,46,47,306,309,310,310,468,70 v7 52.0771 / 5.09616 6952 ttn.v3 0.005km -92 10.2 868.5MHz, SF9BW125, 4/5CR
2026-05-06 23:41:53 11.3125°C 102.375% 2 μg/m³ 2 μg/m³ 4.12V / 2.99V 21,24,26,27,164,166,167,167,534,70 v7 52.0771 / 5.09616 6951 ttn.v3 0.005km -100 7.2 868.3MHz, SF9BW125, 4/5CR
2026-05-06 23:26:53 11.375°C 99.5% 3 μg/m³ 3 μg/m³ 4.12V / 3V 33,35,35,35,265,266,266,266,396,70 v7 52.0771 / 5.09616 6950 ttn.v3 0.005km -97 11.8 868.1MHz, SF9BW125, 4/5CR
2026-05-06 23:11:53 11.5°C 101.25% 4 μg/m³ 5 μg/m³ 4.12V / 3V 40,50,56,59,313,321,322,322,697,79 v7 52.0771 / 5.09616 6949 ttn.v3 0.005km -95 12.2 868.1MHz, SF9BW125, 4/5CR
2026-05-06 22:56:52 11.5625°C 100.125% 5 μg/m³ 9 μg/m³ 4.14V / 2.99V 31,60,82,93,219,244,248,249,924,79 v7 52.0771 / 5.09616 6948 ttn.v3 0.005km -93 12.2 868.1MHz, SF9BW125, 4/5CR
1.741km -127 -11.5 868.1MHz, SF9BW125, 4/5CR
2026-05-06 22:41:52 11.6875°C 103.812% 5 μg/m³ 7 μg/m³ 4.14V / 3V 42,56,66,70,319,331,333,333,582,79 v7 52.0771 / 5.09616 6947 ttn.v3 0.005km -92 11.5 868.1MHz, SF9BW125, 4/5CR
2026-05-06 22:26:53 11.75°C 105.312% 2 μg/m³ 2 μg/m³ 4.14V / 2.99V 22,23,23,23,175,176,176,176,442,79 v7 52.0771 / 5.09616 6946 ttn.v3 0.005km -90 12.8 868.1MHz, SF9BW125, 4/5CR
1.741km -125 -11.25 868.1MHz, SF9BW125, 4/5CR
2026-05-06 22:11:53 11.8125°C 113.375% 1 μg/m³ 1 μg/m³ 4.14V / 2.99V 18,19,20,20,141,142,142,142,472,79 v7 52.0771 / 5.09616 6945 ttn.v3 0.005km -94 12.2 868.3MHz, SF9BW125, 4/5CR
2026-05-06 21:56:52 12.0625°C 115.438% 2 μg/m³ 2 μg/m³ 4.14V / 2.99V 25,27,27,27,202,203,203,203,432,87 v7 52.0771 / 5.09616 6944 ttn.v3 0.005km -94 8.2 868.3MHz, SF9BW125, 4/5CR
2026-05-06 21:41:53 12.375°C 97.6875% 2 μg/m³ 2 μg/m³ 4.14V / 2.99V 22,24,25,25,172,174,174,174,479,131 v7 52.0771 / 5.09616 6943 ttn.v3 0.005km -96 8.5 868.5MHz, SF9BW125, 4/5CR
2026-05-06 21:26:53 12.5°C 92.9375% 2 μg/m³ 3 μg/m³ 4.14V / 2.99V 24,28,30,31,191,194,194,194,534,395 v7 52.0771 / 5.09616 6942 ttn.v3 0.005km -93 9.5 868.5MHz, SF9BW125, 4/5CR
2026-05-06 21:11:53 12.5°C 78.6875% 3 μg/m³ 5 μg/m³ 4.16V / 2.99V 19,36,50,57,130,146,149,149,1054,1161 v7 52.0771 / 5.09616 6941 ttn.v3 0.005km -93 8.5 868.5MHz, SF9BW125, 4/5CR
2026-05-06 20:56:53 12.5625°C 75% 1 μg/m³ 1 μg/m³ 4.16V / 2.99V 12,15,16,17,95,97,97,97,511,2041 v7 52.0771 / 5.09616 6940 ttn.v3 0.005km -94 7 868.5MHz, SF9BW125, 4/5CR
2026-05-06 20:41:51 12.6875°C 76.0625% 3 μg/m³ 3 μg/m³ 4.16V / 2.99V 28,31,32,32,218,220,220,220,478,3219 v7 52.0771 / 5.09616 6939 ttn.v3 0.005km -99 11.5 868.1MHz, SF9BW125, 4/5CR
2026-05-06 20:26:51 12.6875°C 74.4375% 3 μg/m³ 4 μg/m³ 4.16V / 2.99V 33,39,41,43,260,264,265,265,591,3431 v7 52.0771 / 5.09616 6938 ttn.v3 0.005km -92 12.5 868.1MHz, SF9BW125, 4/5CR
1.741km -126 -11 868.1MHz, SF9BW125, 4/5CR
2026-05-06 20:11:52 12.8125°C 73.0625% 2 μg/m³ 2 μg/m³ 4.16V / 2.99V 20,22,23,23,155,156,156,156,470,2850 v7 52.0771 / 5.09616 6937 ttn.v3 0.005km -95 14 868.1MHz, SF9BW125, 4/5CR
2026-05-06 19:56:52 13°C 70.6875% 2 μg/m³ 2 μg/m³ 4.18V / 2.99V 19,21,21,21,154,155,155,155,454,3914 v7 52.0771 / 5.09616 6936 ttn.v3 0.005km -95 10.5 868.3MHz, SF9BW125, 4/5CR
2026-05-06 19:41:52 13.125°C 70.0625% 2 μg/m³ 2 μg/m³ 4.18V / 2.99V 23,24,24,24,180,180,180,180,403,4346 v7 52.0771 / 5.09616 6935 ttn.v3 0.005km -97 12.2 868.1MHz, SF9BW125, 4/5CR
1.741km -125 -9.75 868.1MHz, SF9BW125, 4/5CR
2026-05-06 19:26:52 13.25°C 68.1875% 2 μg/m³ 2 μg/m³ 4.18V / 2.99V 20,22,23,24,160,161,161,161,531,4372 v7 52.0771 / 5.09616 6934 ttn.v3 0.005km -93 11 868.3MHz, SF9BW125, 4/5CR
2026-05-06 19:11:51 13.4375°C 68.5% 3 μg/m³ 4 μg/m³ 4.18V / 2.99V 31,36,39,40,240,244,244,245,598,4715 v7 52.0771 / 5.09616 6933 ttn.v3 0.005km -95 11 868.3MHz, SF9BW125, 4/5CR
2026-05-06 18:56:52 13.5°C 64.875% 2 μg/m³ 2 μg/m³ 4.18V / 2.99V 20,23,25,26,156,158,159,159,515,4557 v7 52.0771 / 5.09616 6932 ttn.v3 0.005km -92 8.5 868.5MHz, SF9BW125, 4/5CR
2026-05-06 18:41:52 13.6875°C 65.25% 2 μg/m³ 2 μg/m³ 4.18V / 2.99V 22,23,23,23,174,175,175,175,452,5120 v7 52.0771 / 5.09616 6931 ttn.v3 0.005km -93 7.5 868.5MHz, SF9BW125, 4/5CR
2026-05-06 18:26:50 13.8125°C 64.6875% 3 μg/m³ 3 μg/m³ 4.18V / 3V 34,37,39,40,267,269,270,270,459,5190 v7 52.0771 / 5.09616 6930 ttn.v3 0.005km -93 9.8 868.5MHz, SF9BW125, 4/5CR
2026-05-06 18:11:50 14.0625°C 64.9375% 3 μg/m³ 4 μg/m³ 4.18V / 2.99V 23,33,39,43,176,184,186,186,767,5225 v7 52.0771 / 5.09616 6929 ttn.v3 0.005km -94 8.5 868.3MHz, SF9BW125, 4/5CR
2026-05-06 17:56:50 14°C 61.875% 3 μg/m³ 3 μg/m³ 4.18V / 2.99V 30,33,35,36,233,236,236,237,480,5463 v7 52.0771 / 5.09616 6928 ttn.v3 0.005km -91 12.5 868.1MHz, SF9BW125, 4/5CR
2026-05-06 17:26:49 13.8125°C 63.5% 1 μg/m³ 1 μg/m³ 4.18V / 2.99V 12,14,15,16,97,98,98,98,541,5595 v7 52.0771 / 5.09616 6926 ttn.v3 0.005km -96 12.8 867.7MHz, SF9BW125, 4/5CR
1.741km -128 -12 867.7MHz, SF9BW125, 4/5CR
2026-05-06 17:11:49 13.6875°C 66% 2 μg/m³ 2 μg/m³ 4.18V / 2.99V 23,27,28,29,185,187,188,188,524,4618 v7 52.0771 / 5.09616 6925 ttn.v3 0.005km -97 12.8 868.1MHz, SF9BW125, 4/5CR
1.741km -126 -12 868.1MHz, SF9BW125, 4/5CR
2026-05-06 16:56:49 13.5°C 69.5625% 1 μg/m³ 1 μg/m³ 4.16V / 2.99V 11,13,14,15,88,90,90,90,508,4557 v7 52.0771 / 5.09616 6924 ttn.v3 0.005km -93 10.2 867.5MHz, SF9BW125, 4/5CR
2026-05-06 16:26:49 13.5625°C 66% 7 μg/m³ 8 μg/m³ 4.14V / 2.99V 60,75,85,89,466,479,480,481,676,5815 v7 52.0771 / 5.09616 6922 ttn.v3 0.005km -93 10.5 867.5MHz, SF9BW125, 4/5CR
2026-05-06 16:11:49 13.5625°C 67% 1 μg/m³ 2 μg/m³ 4.14V / 2.99V 11,17,21,23,85,90,90,91,742,5771 v7 52.0771 / 5.09616 6921 ttn.v3 0.005km -95 11.8 868.1MHz, SF9BW125, 4/5CR
2026-05-06 15:56:49 13.3125°C 64.9375% 1 μg/m³ 1 μg/m³ 4.14V / 2.99V 12,13,13,13,94,94,94,94,415,6000 v7 52.0771 / 5.09616 6920 ttn.v3 0.005km -96 11.5 867.3MHz, SF9BW125, 4/5CR
1.741km -125 -12.75 867.3MHz, SF9BW125, 4/5CR
2026-05-06 15:41:53 13.1875°C 66.9375% 1 μg/m³ 2 μg/m³ 4.14V / 2.99V 16,19,21,22,122,124,125,125,604,5920 v7 52.0771 / 5.09616 6919 ttn.v3 0.005km -96 13.8 868.1MHz, SF9BW125, 4/5CR
1.741km -124 -8.75 868.1MHz, SF9BW125, 4/5CR
2026-05-06 15:27:03 13.4375°C 63.1875% 2 μg/m³ 2 μg/m³ 4.14V / 2.99V 18,21,22,23,138,140,141,141,499,5973 v7 52.0771 / 5.09616 6918 ttn.v3 1.741km -127 -11.5 867.7MHz, SF9BW125, 4/5CR
2026-05-06 14:57:01 13.8125°C 60.25% 1 μg/m³ 1 μg/m³ 4.16V / 2.99V 12,13,13,13,99,100,100,100,425,5991 v7 52.0771 / 5.09616 6916 ttn.v3 0.005km -91 12 867.3MHz, SF9BW125, 4/5CR
1.741km -126 -15 867.3MHz, SF9BW125, 4/5CR
2026-05-06 14:27:02 14.5°C 55.1875% 1 μg/m³ 2 μg/m³ 4.16V / 2.99V 12,16,19,20,93,96,97,97,669,6193 v7 52.0771 / 5.09616 6914 ttn.v3 0.005km -92 12.5 867.7MHz, SF9BW125, 4/5CR
2026-05-06 14:12:01 14.0625°C 60.6875% 4 μg/m³ 6 μg/m³ 4.16V / 2.99V 31,48,61,67,227,242,244,245,872,6211 v7 52.0771 / 5.09616 6913 ttn.v3 1.741km -126 -13.5 867.3MHz, SF9BW125, 4/5CR
2026-05-06 13:56:48 14.125°C 62.25% 1 μg/m³ 1 μg/m³ 4.16V / 2.99V 9,11,12,12,69,70,70,70,549,6193 v7 52.0771 / 5.09616 6912 ttn.v3 0.005km -93 13.2 867.1MHz, SF9BW125, 4/5CR
2026-05-06 13:42:22 14.0625°C 72.625% 4 μg/m³ 4 μg/m³ 4.18V / 2.99V 40,42,42,42,318,319,319,319,428,6175 v7 52.0771 / 5.09616 6911 ttn.v3 0.005km -93 10.5 868.1MHz, SF12BW125, 4/5CR
2026-05-06 13:26:48 13.875°C 73% 3 μg/m³ 3 μg/m³ 4.18V / 2.99V 35,37,37,37,280,281,281,281,453,6167 v7 52.0775 / 5.09619 6910 ttn.v3 0.049km -92 10.8 867.5MHz, SF9BW125, 4/5CR
2026-05-06 13:11:48 14.625°C 64.9375% 2 μg/m³ 2 μg/m³ 4.18V / 2.99V 18,21,23,24,138,141,141,141,471,6184 v7 52.0775 / 5.09619 6909 ttn.v3 0.049km -99 10.8 868.3MHz, SF9BW125, 4/5CR
2026-05-06 12:56:47 15.0625°C 59.3125% 3 μg/m³ 3 μg/m³ 4.18V / 2.99V 35,37,37,37,282,283,283,283,441,6255 v7 52.0775 / 5.09619 6908 ttn.v3 0.049km -96 13.2 867.7MHz, SF9BW125, 4/5CR
2026-05-06 12:41:47 13.6875°C 72.9375% 4 μg/m³ 4 μg/m³ 4.18V / 2.99V 40,43,43,43,320,321,321,322,379,6175 v7 52.0775 / 5.09619 6907 ttn.v3 0.049km -92 10.5 868.5MHz, SF9BW125, 4/5CR
2026-05-06 12:26:47 13.5°C 86.5% 10 μg/m³ 10 μg/m³ 4.2V / 2.99V 89,100,105,108,697,706,707,707,540,6070 v7 52.0775 / 5.09619 6906 ttn.v3 0.049km -95 12 867.7MHz, SF9BW125, 4/5CR
1.773km -127 -14.5 867.7MHz, SF9BW125, 4/5CR
2026-05-06 12:11:47 13.875°C 76.9375% 6 μg/m³ 7 μg/m³ 4.2V / 2.99V 53,64,71,75,413,422,423,424,673,5771 v7 52.0775 / 5.09619 6905 ttn.v3 0.049km -92 9.2 868.5MHz, SF9BW125, 4/5CR
2026-05-06 11:56:47 14.3125°C 69.5% 3 μg/m³ 3 μg/m³ 4.2V / 2.99V 31,35,37,38,243,246,246,247,552,6272 v7 52.0775 / 5.09619 6904 ttn.v3 0.049km -93 11.5 867.9MHz, SF9BW125, 4/5CR
1.773km -128 -12.5 867.9MHz, SF9BW125, 4/5CR
2026-05-06 11:26:48 13.875°C 79.1875% 6 μg/m³ 6 μg/m³ 4.2V / 2.99V 61,65,65,65,486,488,488,488,433,6061 v7 52.0775 / 5.09619 6902 ttn.v3 0.049km -106 11.8 867.1MHz, SF9BW125, 4/5CR
2026-05-06 11:11:47 13.625°C 91.875% 7 μg/m³ 7 μg/m³ 4.18V / 2.99V 66,73,76,78,518,523,524,524,527,5982 v7 52.0775 / 5.09619 6901 ttn.v3 0.049km -90 9 868.3MHz, SF9BW125, 4/5CR
2026-05-06 10:56:47 13.25°C 91.3125% 6 μg/m³ 6 μg/m³ 4.2V / 2.99V 55,61,63,64,432,436,437,437,497,5956 v7 52.0775 / 5.09619 6900 ttn.v3 0.049km -103 11.5 867.3MHz, SF9BW125, 4/5CR
2026-05-06 10:41:47 13.625°C 91.3125% 9 μg/m³ 11 μg/m³ 4.2V / 2.99V 82,98,109,113,638,652,654,654,578,6035 v7 52.0775 / 5.09619 6899 ttn.v3 0.049km -91 11.5 868.3MHz, SF9BW125, 4/5CR
2026-05-06 10:26:46 12.875°C 103.062% 5 μg/m³ 5 μg/m³ 4.18V / 2.99V 57,60,60,60,451,453,453,453,416,6043 v7 52.0775 / 5.09619 6898 ttn.v3 0.049km -94 14.8 867.9MHz, SF9BW125, 4/5CR
2026-05-06 10:11:46 12.75°C 103.875% 9 μg/m³ 9 μg/m³ 4.18V / 2.99V 87,92,92,92,693,695,695,696,409,6017 v7 52.0775 / 5.09619 6897 ttn.v3 0.049km -88 10.2 868.5MHz, SF9BW125, 4/5CR
2026-05-06 09:56:46 12.625°C 102.688% 4 μg/m³ 5 μg/m³ 4.18V / 2.99V 46,49,50,51,363,365,366,366,505,5947 v7 52.0775 / 5.09619 6896 ttn.v3 0.049km -92 11.8 867.3MHz, SF9BW125, 4/5CR
1.773km -125 -9.25 867.3MHz, SF9BW125, 4/5CR
2026-05-06 09:41:46 12.9375°C 100.562% 2 μg/m³ 2 μg/m³ 4.18V / 2.99V 23,27,28,29,185,187,187,187,530,5595 v7 52.0775 / 5.09619 6895 ttn.v3 0.049km -103 11 868.1MHz, SF9BW125, 4/5CR
2026-05-06 09:26:46 12.6875°C 107.312% 4 μg/m³ 5 μg/m³ 4.18V / 2.99V 38,45,49,51,298,303,304,304,492,4803 v7 52.0775 / 5.09619 6894 ttn.v3 0.049km -96 14 867.7MHz, SF9BW125, 4/5CR
1.773km -127 -11.75 867.7MHz, SF9BW125, 4/5CR
2026-05-06 09:11:46 12.3125°C 116.75% 2 μg/m³ 2 μg/m³ 4.14V / 2.99V 22,25,27,27,173,175,176,176,487,4609 v7 52.0775 / 5.09619 6893 ttn.v3 0.049km -91 10.8 868.3MHz, SF9BW125, 4/5CR
2026-05-06 08:56:46 12.125°C 10.625% 4 μg/m³ 4 μg/m³ 4.1V / 2.99V 38,41,42,43,300,303,303,303,533,4539 v7 52.0775 / 5.09619 6892 ttn.v3 0.049km -95 11.8 867.9MHz, SF9BW125, 4/5CR
2026-05-06 08:41:46 11.6875°C 12.75% 4 μg/m³ 5 μg/m³ 4.08V / 2.99V 42,48,51,53,333,338,339,339,568,4504 v7 52.0775 / 5.09619 6891 ttn.v3 0.049km -91 12.2 868.1MHz, SF9BW125, 4/5CR
2026-05-06 08:26:46 11.375°C 16.1875% 3 μg/m³ 3 μg/m³ 4.08V / 3V 36,38,38,38,288,290,290,290,426,4407 v7 52.0775 / 5.09619 6890 ttn.v3 0.049km -94 12.8 867.3MHz, SF9BW125, 4/5CR
1.773km -126 -10.5 867.3MHz, SF9BW125, 4/5CR
2026-05-06 08:11:46 11.125°C 17.8125% 4 μg/m³ 4 μg/m³ 4.06V / 2.99V 39,41,41,41,311,312,312,312,450,4363 v7 52.0775 / 5.09619 6889 ttn.v3 0.049km -88 9.8 868.5MHz, SF9BW125, 4/5CR
2026-05-06 07:56:45 10.9375°C 18.625% 4 μg/m³ 4 μg/m³ 4.06V / 2.99V 45,48,48,48,358,359,359,359,426,4328 v7 52.0775 / 5.09619 6888 ttn.v3 0.049km -92 12.5 867.3MHz, SF9BW125, 4/5CR
2026-05-06 07:41:45 10.8125°C 18.5625% 3 μg/m³ 5 μg/m³ 4.06V / 2.99V 27,39,47,51,206,216,218,218,800,4319 v7 52.0775 / 5.09619 6887 ttn.v3 0.049km -92 12 868.1MHz, SF9BW125, 4/5CR
1.773km -124 -9.5 868.1MHz, SF9BW125, 4/5CR
2026-05-06 07:26:45 10.625°C 18.5625% 4 μg/m³ 5 μg/m³ 4.04V / 2.99V 44,50,52,53,349,353,354,354,512,4319 v7 52.0775 / 5.09619 6886 ttn.v3 0.049km -91 12.8 867.7MHz, SF9BW125, 4/5CR
2026-05-06 07:11:45 10.375°C 19% 8 μg/m³ 9 μg/m³ 4.04V / 2.99V 66,81,91,95,509,522,524,524,655,4284 v7 52.0775 / 5.09619 6885 ttn.v3 0.049km -95 11 868.3MHz, SF9BW125, 4/5CR
2026-05-06 06:56:45 10.25°C 18.875% 7 μg/m³ 7 μg/m³ 4.04V / 2.99V 70,74,74,74,555,557,557,557,423,4249 v7 52.0775 / 5.09619 6884 ttn.v3 0.049km -92 10.5 867.5MHz, SF9BW125, 4/5CR
2026-05-06 06:41:45 10.1875°C 19.375% 5 μg/m³ 5 μg/m³ 4.04V / 2.99V 47,50,50,50,377,379,379,379,407,4064 v7 52.0775 / 5.09619 6883 ttn.v3 0.049km -93 7.2 868.5MHz, SF9BW125, 4/5CR
2026-05-06 06:26:45 10.0625°C 19.5% 6 μg/m³ 6 μg/m³ 4.04V / 2.99V 62,65,65,65,491,493,493,493,447,3219 v7 52.0775 / 5.09619 6882 ttn.v3 0.049km -92 12 867.7MHz, SF9BW125, 4/5CR
1.773km -130 -15.25 867.7MHz, SF9BW125, 4/5CR
2026-05-06 06:11:45 10°C 18.125% 6 μg/m³ 7 μg/m³ 4.04V / 2.99V 62,69,72,73,491,496,496,496,550,2041 v7 52.0775 / 5.09619 6881 ttn.v3 0.049km -92 11.8 868.1MHz, SF9BW125, 4/5CR
1.773km -124 -10.5 868.1MHz, SF9BW125, 4/5CR
2026-05-06 05:56:45 9.9375°C 16.8125% 7 μg/m³ 7 μg/m³ 4.04V / 2.99V 69,73,74,74,549,551,551,551,475,985 v7 52.0775 / 5.09619 6880 ttn.v3 0.049km -93 12 867.9MHz, SF9BW125, 4/5CR
1.773km -128 -12.25 867.9MHz, SF9BW125, 4/5CR
2026-05-06 05:41:45 9.875°C 16.0625% 5 μg/m³ 5 μg/m³ 4.06V / 2.99V 57,60,60,60,451,452,452,453,451,299 v7 52.0775 / 5.09619 6879 ttn.v3 0.049km -94 12.2 868.1MHz, SF9BW125, 4/5CR
2026-05-06 05:26:44 9.75°C 16.625% 6 μg/m³ 6 μg/m³ 4.06V / 2.99V 59,62,62,62,468,470,470,470,454,79 v7 52.0775 / 5.09619 6878 ttn.v3 0.049km -94 14.8 867.1MHz, SF9BW125, 4/5CR
2026-05-06 05:11:44 9.75°C 17.125% 7 μg/m³ 7 μg/m³ 4.06V / 2.99V 72,76,76,76,574,576,577,577,432,61 v7 52.0775 / 5.09619 6877 ttn.v3 0.049km -91 10 868.5MHz, SF9BW125, 4/5CR
2026-05-06 04:56:44 9.8125°C 15.5625% 6 μg/m³ 6 μg/m³ 4.06V / 2.99V 58,61,61,61,461,463,463,463,438,61 v7 52.0775 / 5.09619 6876 ttn.v3 0.049km -96 11.8 867.1MHz, SF9BW125, 4/5CR
2026-05-06 04:41:44 9.8125°C 15.25% 9 μg/m³ 9 μg/m³ 4.06V / 2.99V 86,91,91,91,683,685,685,685,443,61 v7 52.0775 / 5.09619 6875 ttn.v3 0.049km -90 8.2 868.5MHz, SF9BW125, 4/5CR
2026-05-06 04:26:44 9.875°C 14.625% 8 μg/m³ 9 μg/m³ 4.06V / 2.99V 72,82,88,91,563,571,572,573,564,61 v7 52.0775 / 5.09619 6874 ttn.v3 0.049km -88 12.5 867.9MHz, SF9BW125, 4/5CR
1.773km -126 -11 867.9MHz, SF9BW125, 4/5CR
2026-05-06 04:11:44 9.875°C 14.75% 9 μg/m³ 10 μg/m³ 4.06V / 2.99V 86,96,101,103,679,687,688,688,506,61 v7 52.0775 / 5.09619 6873 ttn.v3 0.049km -94 10.8 868.3MHz, SF9BW125, 4/5CR
2026-05-06 03:56:44 10.125°C 9.75% 14 μg/m³ 14 μg/m³ 4.06V / 2.99V 140,148,149,149,1113,1118,1118,1118,467,61 v7 52.0775 / 5.09619 6872 ttn.v3 0.049km -93 12.5 867.7MHz, SF9BW125, 4/5CR
2026-05-06 03:41:44 10.1875°C 7.8125% 7 μg/m³ 7 μg/m³ 4.06V / 2.99V 73,77,77,77,577,579,579,579,450,70 v7 52.0775 / 5.09619 6871 ttn.v3 0.049km -90 10.5 868.5MHz, SF9BW125, 4/5CR
2026-05-06 03:26:44 10.25°C 7.5% 6 μg/m³ 6 μg/m³ 4.08V / 2.99V 58,64,66,67,457,461,462,462,537,70 v7 52.0775 / 5.09619 6870 ttn.v3 0.049km -94 12.5 867.3MHz, SF9BW125, 4/5CR
1.773km -127 -10.5 867.3MHz, SF9BW125, 4/5CR
2026-05-06 03:11:44 10.25°C 9.3125% 7 μg/m³ 9 μg/m³ 4.08V / 2.99V 67,80,88,92,521,532,533,534,644,70 v7 52.0775 / 5.09619 6869 ttn.v3 0.049km -92 10.8 868.3MHz, SF9BW125, 4/5CR
2026-05-06 02:56:43 10.25°C 8.5625% 7 μg/m³ 7 μg/m³ 4.08V / 2.99V 75,79,79,79,594,597,597,597,410,70 v7 52.0775 / 5.09619 6868 ttn.v3 0.049km -90 11.5 867.7MHz, SF9BW125, 4/5CR
1.773km -128 -11.5 867.7MHz, SF9BW125, 4/5CR
2026-05-06 02:41:43 10.1875°C 9.0625% 6 μg/m³ 6 μg/m³ 4.08V / 2.99V 59,63,65,65,464,467,468,468,495,61 v7 52.0775 / 5.09619 6867 ttn.v3 0.049km -96 13 868.1MHz, SF9BW125, 4/5CR
1.773km -121 -10.75 868.1MHz, SF9BW125, 4/5CR
2026-05-06 02:26:43 10.125°C 10.875% 8 μg/m³ 9 μg/m³ 4.08V / 2.99V 76,85,89,91,596,603,604,604,518,61 v7 52.0775 / 5.09619 6866 ttn.v3 1.773km -125 -8.25 867.7MHz, SF9BW125, 4/5CR
2026-05-06 02:11:43 10.125°C 11.9375% 10 μg/m³ 11 μg/m³ 4.08V / 2.99V 89,106,115,120,697,710,711,712,642,61 v7 52.0775 / 5.09619 6865 ttn.v3 0.049km -89 10.2 868.5MHz, SF9BW125, 4/5CR
2026-05-06 01:56:43 10.0625°C 13.5% 11 μg/m³ 11 μg/m³ 4.08V / 2.99V 99,110,114,116,784,792,793,793,484,61 v7 52.0775 / 5.09619 6864 ttn.v3 0.049km -94 13 867.7MHz, SF9BW125, 4/5CR
1.773km -127 -11 867.7MHz, SF9BW125, 4/5CR
4.35km -107 -12.75 867.7MHz, SF9BW125, 4/5CR
2026-05-06 01:41:43 10.0625°C 13.375% 13 μg/m³ 13 μg/m³ 4.08V / 2.99V 120,131,135,137,951,958,959,959,510,61 v7 52.0775 / 5.09619 6863 ttn.v3 0.049km -97 12.5 868.1MHz, SF9BW125, 4/5CR
1.773km -120 -7.75 868.1MHz, SF9BW125, 4/5CR
2026-05-06 01:26:43 10°C 11.875% 13 μg/m³ 16 μg/m³ 4.08V / 2.99V 109,136,153,162,845,867,870,871,652,61 v7 52.0775 / 5.09619 6862 ttn.v3 0.049km -94 11.5 867.5MHz, SF9BW125, 4/5CR
2026-05-06 01:11:43 10.0625°C 12.4375% 13 μg/m³ 13 μg/m³ 4.08V / 2.99V 127,134,134,134,1010,1014,1014,1015,405,61 v7 52.0775 / 5.09619 6861 ttn.v3 0.049km -91 12.2 868.3MHz, SF9BW125, 4/5CR
2026-05-06 00:56:43 10°C 11.125% 12 μg/m³ 12 μg/m³ 4.08V / 2.99V 122,129,129,129,971,974,974,975,442,70 v7 52.0775 / 5.09619 6860 ttn.v3 0.049km -97 11 867.5MHz, SF9BW125, 4/5CR
2026-05-06 00:41:42 10°C 10.5% 14 μg/m³ 15 μg/m³ 4.1V / 2.99V 128,142,148,150,1015,1025,1026,1026,523,61 v7 52.0775 / 5.09619 6859 ttn.v3 0.049km -90 11.2 868.3MHz, SF9BW125, 4/5CR
2026-05-06 00:26:42 10°C 8.25% 8 μg/m³ 8 μg/m³ 4.1V / 2.99V 75,84,87,89,592,598,599,599,576,61 v7 52.0775 / 5.09619 6858 ttn.v3 0.049km -96 12.5 867.9MHz, SF9BW125, 4/5CR
2026-05-06 00:11:42 10°C 4% 7 μg/m³ 7 μg/m³ 4.1V / 2.99V 66,72,74,75,525,529,530,530,490,61 v7 52.0775 / 5.09619 6857 ttn.v3 0.049km -93 11.2 868.3MHz, SF9BW125, 4/5CR
2026-05-05 23:56:42 9.9375°C 1.25% 4 μg/m³ 4 μg/m³ 4.1V / 2.99V 39,41,41,41,308,310,310,310,423,70 v7 52.0775 / 5.09619 6856 ttn.v3 0.049km -92 10.5 867.5MHz, SF9BW125, 4/5CR
2026-05-05 23:41:42 10°C -0.875% 7 μg/m³ 8 μg/m³ 4.1V / 2.99V 62,73,80,83,483,491,493,493,622,61 v7 52.0775 / 5.09619 6855 ttn.v3 0.049km -92 9.2 868.5MHz, SF9BW125, 4/5CR
2026-05-05 23:26:42 10.125°C -2.5625% 5 μg/m³ 5 μg/m³ 4.1V / 2.99V 46,51,54,55,359,363,363,364,475,70 v7 52.0775 / 5.09619 6854 ttn.v3 0.049km -95 14.8 867.9MHz, SF9BW125, 4/5CR
2026-05-05 23:11:42 10.3125°C -3.5% 6 μg/m³ 6 μg/m³ 4.1V / 2.99V 57,63,66,68,446,451,452,452,539,70 v7 52.0775 / 5.09619 6853 ttn.v3 0.049km -91 10.2 868.5MHz, SF9BW125, 4/5CR
2026-05-05 22:56:42 10.5625°C -4.5625% 5 μg/m³ 6 μg/m³ 4.12V / 2.99V 47,54,58,60,369,375,376,376,539,70 v7 52.0775 / 5.09619 6852 ttn.v3 0.049km -94 13.2 867.7MHz, SF9BW125, 4/5CR
4.35km -110 -11.5 867.7MHz, SF9BW125, 4/5CR
2026-05-05 22:41:42 10.8125°C -5.625% 4 μg/m³ 4 μg/m³ 4.12V / 2.99V 42,45,45,45,335,336,336,336,445,70 v7 52.0775 / 5.09619 6851 ttn.v3 0.049km -92 11.5 868.3MHz, SF9BW125, 4/5CR
2026-05-05 22:26:41 11.125°C 116.438% 10 μg/m³ 11 μg/m³ 4.12V / 2.99V 94,106,112,114,740,749,750,750,497,70 v7 52.0775 / 5.09619 6850 ttn.v3 0.049km -93 11.8 867.3MHz, SF9BW125, 4/5CR
2026-05-05 22:11:41 11.3125°C -3.8125% 9 μg/m³ 9 μg/m³ 4.12V / 2.99V 83,91,94,96,652,658,659,659,499,79 v7 52.0775 / 5.09619 6849 ttn.v3 0.049km -92 10.5 868.5MHz, SF9BW125, 4/5CR
2026-05-05 21:56:41 11.375°C -3.25% 6 μg/m³ 6 μg/m³ 4.12V / 2.99V 58,61,61,61,462,464,464,464,416,79 v7 52.0775 / 5.09619 6848 ttn.v3 0.049km -93 13.8 867.1MHz, SF9BW125, 4/5CR
2026-05-05 21:41:41 11.375°C -3.875% 7 μg/m³ 7 μg/m³ 4.12V / 2.99V 68,75,78,79,541,545,546,546,495,140 v7 52.0775 / 5.09619 6847 ttn.v3 0.049km -89 11.8 868.3MHz, SF9BW125, 4/5CR
2026-05-05 21:26:41 11.5°C -4.9375% 9 μg/m³ 9 μg/m³ 4.12V / 2.99V 80,90,96,98,627,635,636,637,549,853 v7 52.0775 / 5.09619 6846 ttn.v3 0.049km -93 13.2 867.1MHz, SF9BW125, 4/5CR
- -124 -13.5 867.1MHz, SF9BW125, 4/5CR
2026-05-05 21:11:41 11.75°C 115.812% 7 μg/m³ 7 μg/m³ 4.14V / 2.99V 70,77,79,79,558,562,562,562,459,1706 v7 52.0775 / 5.09619 6845 ttn.v3 0.049km -92 12 868.1MHz, SF9BW125, 4/5CR
2026-05-05 20:56:41 11.9375°C 118% 6 μg/m³ 7 μg/m³ 4.14V / 2.99V 63,69,70,71,498,502,503,503,465,2542 v7 52.0775 / 5.09619 6844 ttn.v3 0.049km -95 12 867.9MHz, SF9BW125, 4/5CR
2026-05-05 20:41:41 12.125°C 117.75% 6 μg/m³ 6 μg/m³ 4.14V / 2.99V 59,62,62,62,469,471,471,471,426,3325 v7 52.0775 / 5.09619 6843 ttn.v3 0.049km -94 12 868.3MHz, SF9BW125, 4/5CR
2026-05-05 20:26:41 12.25°C 114.688% 12 μg/m³ 12 μg/m³ 4.14V / 2.99V 112,120,122,123,885,890,890,891,479,4117 v7 52.0775 / 5.09619 6842 ttn.v3 0.049km -91 12 867.5MHz, SF9BW125, 4/5CR
2026-05-05 20:11:41 12.5625°C 112.5% 7 μg/m³ 8 μg/m³ 4.14V / 2.99V 66,75,80,82,519,526,527,527,576,4302 v7 52.0775 / 5.09619 6841 ttn.v3 0.049km -90 9.8 868.5MHz, SF9BW125, 4/5CR
2026-05-05 19:56:40 12.8125°C 111.625% 9 μg/m³ 9 μg/m³ 4.14V / 2.99V 79,90,96,99,618,627,628,629,597,4337 v7 52.0775 / 5.09619 6840 ttn.v3 0.049km -99 13.5 867.3MHz, SF9BW125, 4/5CR
1.773km -124 -9.25 867.3MHz, SF9BW125, 4/5CR
2026-05-05 19:41:40 13.1875°C 110% 7 μg/m³ 7 μg/m³ 4.14V / 2.99V 72,76,76,76,572,574,574,574,404,4363 v7 52.0775 / 5.09619 6839 ttn.v3 0.049km -90 11.8 868.3MHz, SF9BW125, 4/5CR
2026-05-05 19:26:40 13.375°C 107.062% 8 μg/m³ 9 μg/m³ 4.14V / 2.99V 71,82,88,90,554,562,564,564,542,4398 v7 52.0775 / 5.09619 6838 ttn.v3 0.049km -92 12 867.3MHz, SF9BW125, 4/5CR
2026-05-05 19:11:40 13.625°C 103.938% 7 μg/m³ 8 μg/m³ 4.14V / 2.99V 69,78,82,83,546,553,553,554,513,4434 v7 52.0775 / 5.09619 6837 ttn.v3 0.049km -88 11.2 868.5MHz, SF9BW125, 4/5CR
2026-05-05 18:56:40 13.8125°C 99.9375% 9 μg/m³ 10 μg/m³ 4.14V / 2.99V 89,97,99,100,702,707,708,708,519,4442 v7 52.0775 / 5.09619 6836 ttn.v3 0.049km -94 12.5 867.7MHz, SF9BW125, 4/5CR
2026-05-05 18:41:40 14.1875°C 99.0625% 10 μg/m³ 10 μg/m³ 4.14V / 2.99V 92,100,103,104,726,731,732,732,494,5621 v7 52.0775 / 5.09619 6835 ttn.v3 0.049km -91 11.8 868.3MHz, SF9BW125, 4/5CR
2026-05-05 18:26:40 14.5°C 96.125% 7 μg/m³ 7 μg/m³ 4.14V / 2.99V 68,74,76,77,536,540,541,541,473,5551 v7 52.0775 / 5.09619 6834 ttn.v3 0.049km -94 12.5 867.9MHz, SF9BW125, 4/5CR
4.35km -111 -10.75 867.9MHz, SF9BW125, 4/5CR
1.773km -129 -12.75 867.9MHz, SF9BW125, 4/5CR
2026-05-05 18:11:40 14.5625°C 92.9375% 7 μg/m³ 7 μg/m³ 4.14V / 2.99V 67,71,71,71,534,536,537,537,421,5683 v7 52.0775 / 5.09619 6833 ttn.v3 0.049km -91 10.5 868.5MHz, SF9BW125, 4/5CR
2026-05-05 17:56:40 14.5625°C 96.0625% 7 μg/m³ 7 μg/m³ 4.14V / 2.99V 66,70,70,70,528,530,530,530,442,5841 v7 52.0775 / 5.09619 6832 ttn.v3 0.049km -96 11.8 867.9MHz, SF9BW125, 4/5CR
4.35km -111 -11.25 867.9MHz, SF9BW125, 4/5CR
2026-05-05 17:41:40 14.8125°C 97.4375% 11 μg/m³ 11 μg/m³ 4.14V / 2.99V 109,115,115,115,864,867,868,868,393,5894 v7 52.0775 / 5.09619 6831 ttn.v3 0.049km -97 13.8 868.1MHz, SF9BW125, 4/5CR
1.773km -125 -12.75 868.1MHz, SF9BW125, 4/5CR
2026-05-05 17:26:39 15.125°C 89.4375% 8 μg/m³ 9 μg/m³ 4.14V / 2.99V 73,87,96,100,571,582,584,584,586,6035 v7 52.0775 / 5.09619 6830 ttn.v3 0.049km -97 13 867.3MHz, SF9BW125, 4/5CR
2026-05-05 17:11:39 15.1875°C 93.5625% 9 μg/m³ 9 μg/m³ 4.14V / 2.99V 90,97,99,100,712,717,717,717,473,6052 v7 52.0775 / 5.09619 6829 ttn.v3 0.049km -93 11.8 868.1MHz, SF9BW125, 4/5CR
1.773km -125 -12 868.1MHz, SF9BW125, 4/5CR
2026-05-05 16:56:39 14.875°C 93% 13 μg/m³ 13 μg/m³ 4.16V / 2.99V 127,137,139,140,1004,1010,1011,1011,458,5973 v7 52.0775 / 5.09619 6828 ttn.v3 0.049km -96 13.8 867.9MHz, SF9BW125, 4/5CR
2026-05-05 16:41:39 15.1875°C 92% 9 μg/m³ 9 μg/m³ 4.16V / 2.99V 82,90,93,95,648,653,654,654,482,6114 v7 52.0775 / 5.09619 6827 ttn.v3 0.049km -98 12 868.1MHz, SF9BW125, 4/5CR
1.773km -126 -11.25 868.1MHz, SF9BW125, 4/5CR
2026-05-05 16:26:39 15.4375°C 92% 11 μg/m³ 11 μg/m³ 4.16V / 2.99V 109,115,115,115,863,866,866,866,414,6140 v7 52.0775 / 5.09619 6826 ttn.v3 0.049km -102 13.5 867.9MHz, SF9BW125, 4/5CR
4.35km -105 -10.5 867.9MHz, SF9BW125, 4/5CR
1.773km -126 -13.25 867.9MHz, SF9BW125, 4/5CR
2026-05-05 16:11:40 15.75°C 89.5% 10 μg/m³ 10 μg/m³ 4.16V / 2.99V 95,100,100,100,755,758,758,758,420,6096 v7 52.0775 / 5.09619 6825 ttn.v3 0.049km -97 9.8 868.3MHz, SF9BW125, 4/5CR
2026-05-05 15:56:39 15.9375°C 86.25% 13 μg/m³ 14 μg/m³ 4.16V / 2.99V 124,135,139,141,978,986,987,987,513,6167 v7 52.0775 / 5.09619 6824 ttn.v3 0.049km -92 12 867.9MHz, SF9BW125, 4/5CR
4.35km -109 -10.5 867.9MHz, SF9BW125, 4/5CR
2026-05-05 15:41:54 16.4375°C 83.125% 10 μg/m³ 10 μg/m³ 4.18V / 2.99V 98,103,103,103,776,778,779,779,416,6167 v7 52.0775 / 5.09619 6823 ttn.v3 0.049km -92 11.8 868.1MHz, SF9BW125, 4/5CR
1.773km -126 -14.25 868.1MHz, SF9BW125, 4/5CR
2026-05-05 15:26:53 16.3125°C 80.0625% 9 μg/m³ 9 μg/m³ 4.18V / 2.99V 87,92,92,92,692,695,695,695,432,6307 v7 52.0775 / 5.09619 6822 ttn.v3 0.049km -95 9 868.5MHz, SF9BW125, 4/5CR

Message count: 200
Node count: 1

Messages per node

Number of messages in list aboveNodes
200

Statistics per gateway

GatewayNumber of messagesNumber of nodesNodes
1961 (0.049km)
431 (1.773km)
81 (4.35km)
11

Filter by dataset